createdAt,value
2019-01-06T00:01:27.979Z,101470.98
2019-01-06T00:04:13.094Z,101477.77
2019-01-06T00:06:59.493Z,101467.59
2019-01-06T00:09:32.275Z,101467.98
2019-01-06T00:12:14.336Z,101470.98
2019-01-06T00:15:00.520Z,101478.55
2019-01-06T00:17:36.574Z,101479.43
2019-01-06T00:20:07.436Z,101483.21
2019-01-06T00:22:49.466Z,101483.21
2019-01-06T00:25:22.487Z,101480.59
2019-01-06T00:28:07.797Z,101485.69
2019-01-06T00:30:37.879Z,101487.45
2019-01-06T00:33:24.020Z,101487.45
2019-01-06T00:36:05.940Z,101489.08
2019-01-06T00:38:48.217Z,101487.84
2019-01-06T00:41:27.246Z,101484.84
2019-01-06T00:44:12.456Z,101491.62
2019-01-06T00:46:58.669Z,101489.47
2019-01-06T00:49:43.969Z,101493.31
2019-01-06T00:52:26.016Z,101495.43
2019-01-06T00:55:08.165Z,101496.73
2019-01-06T00:57:43.993Z,101495.82
2019-01-06T01:00:20.021Z,101495.82
2019-01-06T01:02:59.328Z,101498.83
2019-01-06T01:05:45.749Z,101499.20
2019-01-06T01:08:31.963Z,101505.56
2019-01-06T01:11:07.713Z,101503.91
2019-01-06T01:13:43.787Z,101504.33
2019-01-06T01:16:30.215Z,101507.30
2019-01-06T01:19:08.894Z,101509.42
2019-01-06T01:21:38.959Z,101508.18
2019-01-06T01:24:11.797Z,101512.77
2019-01-06T01:26:50.649Z,101513.52
2019-01-06T01:29:26.251Z,101524.53
2019-01-06T01:31:58.805Z,101529.41
2019-01-06T01:34:35.040Z,101529.30
2019-01-06T01:37:17.303Z,101533.39
2019-01-06T01:39:53.420Z,101544.16
2019-01-06T01:42:26.380Z,101538.18
2019-01-06T01:45:08.292Z,101538.88
2019-01-06T01:47:50.356Z,101544.11
2019-01-06T01:50:32.616Z,101550.07
2019-01-06T01:53:02.688Z,101549.32
2019-01-06T01:55:48.791Z,101555.63
2019-01-06T01:58:18.871Z,101553.26
2019-01-06T02:00:57.747Z,101557.58
2019-01-06T02:03:42.665Z,101562.98
2019-01-06T02:06:12.740Z,101564.89
2019-01-06T02:08:43.507Z,101563.41
2019-01-06T02:11:22.396Z,101563.09
2019-01-06T02:14:10.734Z,101559.17
2019-01-06T02:16:46.603Z,101563.30
2019-01-06T02:19:32.899Z,101567.59
2019-01-06T02:22:05.684Z,101560.39
2019-01-06T02:24:50.691Z,101553.38
2019-01-06T02:27:37.064Z,101554.65
2019-01-06T02:30:08.292Z,101554.34
2019-01-06T02:32:44.556Z,101558.46
2019-01-06T02:35:14.645Z,101550.69
2019-01-06T02:37:50.881Z,101556.24
2019-01-06T02:40:29.882Z,101552.53
2019-01-06T02:43:00.202Z,101560.09
2019-01-06T02:45:35.873Z,101560.94
2019-01-06T02:48:20.573Z,101564.60
2019-01-06T02:50:50.647Z,101563.21
2019-01-06T02:53:20.705Z,101567.76
2019-01-06T02:55:56.582Z,101574.99
2019-01-06T02:58:29.371Z,101575.73
2019-01-06T03:01:05.150Z,101573.63
2019-01-06T03:03:35.252Z,101570.36
2019-01-06T03:06:05.294Z,101574.05
2019-01-06T03:08:51.822Z,101568.13
2019-01-06T03:11:30.737Z,101570.36
2019-01-06T03:14:12.897Z,101567.55
2019-01-06T03:17:00.996Z,101572.26
2019-01-06T03:19:46.900Z,101570.08
2019-01-06T03:22:33.492Z,101570.77
2019-01-06T03:25:19.376Z,101568.72
2019-01-06T03:27:55.426Z,101570.68
2019-01-06T03:30:41.592Z,101572.78
2019-01-06T03:33:14.182Z,101577.53
2019-01-06T03:35:47.780Z,101584.62
2019-01-06T03:38:17.883Z,101580.97
2019-01-06T03:40:56.852Z,101583.98
2019-01-06T03:43:29.411Z,101584.03
2019-01-06T03:46:14.043Z,101582.03
2019-01-06T03:48:59.871Z,101577.80
2019-01-06T03:51:38.704Z,101581.29
2019-01-06T03:54:25.131Z,101574.36
2019-01-06T03:57:12.975Z,101576.16
2019-01-06T03:59:49.337Z,101568.98
2019-01-06T04:02:22.129Z,101578.11
2019-01-06T04:05:08.197Z,101579.08
2019-01-06T04:07:38.342Z,101575.69
2019-01-06T04:10:08.545Z,101577.80
2019-01-06T04:12:41.300Z,101576.43
2019-01-06T04:15:14.175Z,101577.42
2019-01-06T04:17:50.194Z,101577.70
2019-01-06T04:20:29.341Z,101579.70
2019-01-06T04:23:08.263Z,101582.20
2019-01-06T04:25:44.295Z,101584.98
2019-01-06T04:28:23.111Z,101590.38
2019-01-06T04:31:02.078Z,101593.48
2019-01-06T04:33:48.464Z,101593.55
2019-01-06T04:36:24.563Z,101591.33
2019-01-06T04:38:54.645Z,101595.56
2019-01-06T04:41:40.923Z,101588.21
2019-01-06T04:44:28.656Z,101587.41
2019-01-06T04:47:10.980Z,101584.83
2019-01-06T04:49:59.022Z,101586.47
2019-01-06T04:52:38.106Z,101588.67
2019-01-06T04:55:17.164Z,101585.72
2019-01-06T04:58:03.555Z,101584.98
2019-01-06T05:00:49.685Z,101583.83
2019-01-06T05:03:34.741Z,101582.51
2019-01-06T05:06:20.618Z,101589.37
2019-01-06T05:09:06.800Z,101596.98
2019-01-06T05:11:39.938Z,101595.17
2019-01-06T05:14:09.997Z,101591.95
2019-01-06T05:16:45.596Z,101594.39
2019-01-06T05:19:24.389Z,101598.30
2019-01-06T05:22:10.863Z,101597.55
2019-01-06T05:24:56.803Z,101594.71
2019-01-06T05:27:42.656Z,101599.83
2019-01-06T05:30:15.431Z,101598.58
2019-01-06T05:32:54.122Z,101608.29
2019-01-06T05:35:24.329Z,101608.72
2019-01-06T05:38:06.131Z,101604.92
2019-01-06T05:40:41.675Z,101606.54
2019-01-06T05:43:28.152Z,101612.83
2019-01-06T05:46:10.378Z,101604.42
2019-01-06T05:48:40.448Z,101605.70
2019-01-06T05:51:16.183Z,101612.52
2019-01-06T05:53:52.187Z,101615.47
2019-01-06T05:56:22.243Z,101623.57
2019-01-06T05:59:08.548Z,101625.73
2019-01-06T06:01:47.506Z,101625.61
2019-01-06T06:04:26.527Z,101634.09
2019-01-06T06:07:02.294Z,101634.55
2019-01-06T06:09:32.366Z,101637.58
2019-01-06T06:12:20.892Z,101636.72
2019-01-06T06:15:08.959Z,101638.52
2019-01-06T06:17:39.032Z,101635.14
2019-01-06T06:20:12.083Z,101641.86
2019-01-06T06:22:44.716Z,101636.72
2019-01-06T06:25:24.050Z,101636.61
2019-01-06T06:27:59.944Z,101641.22
2019-01-06T06:30:41.955Z,101642.59
2019-01-06T06:33:23.651Z,101642.23
2019-01-06T06:35:53.707Z,101644.44
2019-01-06T06:38:33.985Z,101647.03
2019-01-06T06:41:07.293Z,101648.72
2019-01-06T06:43:50.140Z,101657.66
2019-01-06T06:46:20.209Z,101659.30
2019-01-06T06:49:06.047Z,101661.88
2019-01-06T06:51:38.841Z,101659.34
2019-01-06T06:54:14.352Z,101661.14
2019-01-06T06:56:58.608Z,101668.22
2019-01-06T06:59:37.491Z,101663.16
2019-01-06T07:02:29.760Z,101665.31
2019-01-06T07:05:02.845Z,101666.97
2019-01-06T07:07:35.653Z,101673.98
2019-01-06T07:10:06.677Z,101679.59
2019-01-06T07:12:39.699Z,101675.84
2019-01-06T07:15:18.829Z,101680.02
2019-01-06T07:17:50.252Z,101682.19
2019-01-06T07:20:26.563Z,101680.91
2019-01-06T07:22:56.644Z,101691.48
2019-01-06T07:25:26.687Z,101692.81
2019-01-06T07:28:06.870Z,101701.20
2019-01-06T07:30:48.876Z,101703.27
2019-01-06T07:33:28.026Z,101703.98
2019-01-06T07:35:58.100Z,101710.96
2019-01-06T07:38:44.025Z,101720.19
2019-01-06T07:41:19.787Z,101715.77
2019-01-06T07:44:07.907Z,101717.47
2019-01-06T07:46:44.023Z,101721.77
2019-01-06T07:49:22.893Z,101724.84
2019-01-06T07:51:52.966Z,101725.30
2019-01-06T07:54:25.866Z,101721.50
2019-01-06T07:56:55.928Z,101721.62
2019-01-06T07:59:26.006Z,101727.00
2019-01-06T08:02:12.298Z,101727.91
2019-01-06T08:04:58.544Z,101732.98
2019-01-06T08:07:44.912Z,101735.52
2019-01-06T08:10:17.770Z,101733.47
2019-01-06T08:13:03.850Z,101737.80
2019-01-06T08:15:36.871Z,101738.69
2019-01-06T08:18:23.388Z,101743.42
2019-01-06T08:21:02.597Z,101751.08
2019-01-06T08:23:32.671Z,101755.25
2019-01-06T08:26:11.368Z,101746.80
2019-01-06T08:28:43.857Z,101756.20
2019-01-06T08:31:22.793Z,101757.84
2019-01-06T08:33:56.159Z,101757.01
2019-01-06T08:36:35.007Z,101760.03
2019-01-06T08:39:14.381Z,101758.01
2019-01-06T08:42:00.774Z,101759.39
2019-01-06T08:44:30.838Z,101761.46
2019-01-06T08:47:06.708Z,101764.85
2019-01-06T08:49:49.175Z,101759.83
2019-01-06T08:52:21.922Z,101757.82
2019-01-06T08:55:08.114Z,101761.58
2019-01-06T08:57:56.288Z,101762.95
2019-01-06T09:00:42.086Z,101768.92
2019-01-06T09:03:27.396Z,101762.00
2019-01-06T09:06:09.238Z,101765.75
2019-01-06T09:08:45.142Z,101765.73
2019-01-06T09:11:31.369Z,101765.91
2019-01-06T09:14:04.449Z,101765.92
2019-01-06T09:16:50.939Z,101771.95
2019-01-06T09:19:27.055Z,101777.99
2019-01-06T09:22:13.534Z,101778.36
2019-01-06T09:24:49.547Z,101773.44
2019-01-06T09:27:25.202Z,101775.08
2019-01-06T09:30:01.799Z,101781.06
2019-01-06T09:32:47.974Z,101780.26
2019-01-06T09:35:34.180Z,101787.52
2019-01-06T09:38:04.283Z,101785.94
2019-01-06T09:40:50.317Z,101785.77
2019-01-06T09:43:32.711Z,101788.05
2019-01-06T09:46:11.439Z,101782.60
2019-01-06T09:48:47.472Z,101783.97
2019-01-06T09:51:34.112Z,101777.20
2019-01-06T09:54:04.286Z,101777.69
2019-01-06T09:56:34.419Z,101775.61
2019-01-06T09:59:15.395Z,101772.19
2019-01-06T10:02:01.486Z,101768.53
2019-01-06T10:04:47.901Z,101771.18
2019-01-06T10:07:26.839Z,101775.52
2019-01-06T10:10:13.111Z,101768.15
2019-01-06T10:12:43.414Z,101766.98
2019-01-06T10:15:28.827Z,101773.49
2019-01-06T10:18:08.062Z,101771.75
2019-01-06T10:20:44.097Z,101770.81
2019-01-06T10:23:14.474Z,101769.22
2019-01-06T10:25:44.616Z,101769.32
2019-01-06T10:28:17.100Z,101762.54
2019-01-06T10:31:00.756Z,101765.51
2019-01-06T10:33:42.899Z,101761.80
2019-01-06T10:36:31.326Z,101764.91
2019-01-06T10:39:10.475Z,101760.30
2019-01-06T10:41:59.026Z,101762.97
2019-01-06T10:44:32.090Z,101759.53
2019-01-06T10:47:14.893Z,101757.99
2019-01-06T10:49:54.299Z,101753.39
2019-01-06T10:52:30.186Z,101750.95
2019-01-06T10:55:00.610Z,101752.69
2019-01-06T10:57:49.053Z,101748.68
2019-01-06T11:00:19.476Z,101752.83
2019-01-06T11:02:52.609Z,101759.16
2019-01-06T11:05:35.248Z,101757.16
2019-01-06T11:08:11.219Z,101758.32
2019-01-06T11:10:44.344Z,101760.44
2019-01-06T11:13:20.326Z,101761.28
2019-01-06T11:16:06.652Z,101764.78
2019-01-06T11:18:39.574Z,101761.77
2019-01-06T11:24:01.878Z,101764.30
2019-01-06T11:26:37.394Z,101760.97
2019-01-06T11:29:19.561Z,101763.98
2019-01-06T11:31:56.132Z,101758.42
2019-01-06T11:34:42.828Z,101767.97
2019-01-06T11:37:14.303Z,101753.94
2019-01-06T11:39:44.677Z,101764.99
2019-01-06T11:42:33.537Z,101757.38
2019-01-06T11:45:20.069Z,101755.27
2019-01-06T11:48:03.303Z,101754.83
2019-01-06T11:50:50.579Z,101745.04
2019-01-06T11:53:27.012Z,101750.66
2019-01-06T11:55:57.334Z,101748.30
2019-01-06T11:58:30.110Z,101746.09
2019-01-06T12:01:00.496Z,101748.53
2019-01-06T12:03:33.511Z,101751.17
2019-01-06T12:06:18.387Z,101749.58
2019-01-06T12:09:00.930Z,101747.09
2019-01-06T12:11:31.160Z,101747.17
2019-01-06T12:14:04.216Z,101744.92
2019-01-06T12:16:49.357Z,101745.29
2019-01-06T12:19:35.309Z,101749.89
2019-01-06T12:22:05.492Z,101745.72
2019-01-06T12:24:52.027Z,101743.27
2019-01-06T12:27:22.278Z,101739.41
2019-01-06T12:29:52.517Z,101738.19
2019-01-06T12:32:40.836Z,101740.45
2019-01-06T12:35:26.884Z,101745.58
2019-01-06T12:38:15.074Z,101749.39
2019-01-06T12:40:57.582Z,101750.44
2019-01-06T12:43:39.576Z,101746.58
2019-01-06T12:46:25.807Z,101750.00
2019-01-06T12:49:08.122Z,101747.51
2019-01-06T12:51:46.866Z,101750.85
2019-01-06T12:54:22.660Z,101751.84
2019-01-06T12:57:04.834Z,101749.73
2019-01-06T12:59:51.483Z,101749.73
2019-01-06T13:02:21.695Z,101753.62
2019-01-06T13:05:04.081Z,101747.55
2019-01-06T13:07:35.300Z,101754.00
2019-01-06T13:10:25.072Z,101752.77
2019-01-06T13:12:55.164Z,101752.36
2019-01-06T13:15:28.091Z,101750.24
2019-01-06T13:18:04.135Z,101755.41
2019-01-06T13:20:46.323Z,101751.98
2019-01-06T13:23:28.961Z,101750.28
2019-01-06T13:26:17.511Z,101754.14
2019-01-06T13:28:53.280Z,101751.59
2019-01-06T13:31:41.510Z,101755.41
2019-01-06T13:34:17.594Z,101761.39
2019-01-06T13:36:47.888Z,101763.94
2019-01-06T13:39:18.040Z,101760.59
2019-01-06T13:41:50.975Z,101760.64
2019-01-06T13:44:24.243Z,101765.30
2019-01-06T13:46:57.550Z,101767.42
2019-01-06T13:49:44.508Z,101773.64
2019-01-06T13:52:17.373Z,101765.13
2019-01-06T13:55:04.023Z,101769.31
2019-01-06T13:57:43.227Z,101767.23
2019-01-06T14:00:19.251Z,101766.30
2019-01-06T14:03:07.349Z,101763.42
2019-01-06T14:05:58.303Z,101773.59
2019-01-06T14:08:28.394Z,101768.42
2019-01-06T14:11:13.521Z,101769.17
2019-01-06T14:13:55.276Z,101768.88
2019-01-06T14:16:33.892Z,101774.40
2019-01-06T14:19:03.957Z,101776.09
2019-01-06T14:21:43.293Z,101773.13
2019-01-06T14:24:29.859Z,101766.86
2019-01-06T14:27:11.816Z,101768.64
2019-01-06T14:29:45.018Z,101773.73
2019-01-06T14:32:15.329Z,101771.14
2019-01-06T14:34:51.824Z,101767.66
2019-01-06T14:37:25.099Z,101769.45
2019-01-06T14:40:11.390Z,101772.36
2019-01-06T14:42:45.132Z,101774.11
2019-01-06T14:45:15.362Z,101780.46
2019-01-06T14:48:02.051Z,101779.19
2019-01-06T14:50:50.137Z,101780.42
2019-01-06T14:53:36.821Z,101787.25
2019-01-06T14:56:12.415Z,101784.66
2019-01-06T14:58:42.519Z,101784.66
2019-01-06T15:01:15.582Z,101795.25
2019-01-06T15:03:45.704Z,101796.91
2019-01-06T15:06:33.703Z,101796.99
2019-01-06T15:09:13.078Z,101797.28
2019-01-06T15:11:59.197Z,101799.02
2019-01-06T15:14:38.495Z,101798.03
2019-01-06T15:17:17.779Z,101804.90
2019-01-06T15:20:03.024Z,101810.36
2019-01-06T15:22:48.250Z,101812.39
2019-01-06T15:25:21.403Z,101819.22
2019-01-06T15:28:03.722Z,101814.94
2019-01-06T15:30:34.014Z,101810.73
2019-01-06T15:33:16.632Z,101802.73
2019-01-06T15:35:56.019Z,101808.20
2019-01-06T15:38:29.210Z,101798.41
2019-01-06T15:41:17.696Z,101813.70
2019-01-06T15:43:51.078Z,101814.55
2019-01-06T15:46:24.015Z,101811.55
2019-01-06T15:49:10.046Z,101807.36
2019-01-06T15:51:56.359Z,101810.31
2019-01-06T15:54:35.514Z,101809.84
2019-01-06T15:57:08.133Z,101816.61
2019-01-06T15:59:41.282Z,101811.40
2019-01-06T16:02:17.503Z,101809.37
2019-01-06T16:04:50.343Z,101811.96
2019-01-06T16:07:31.536Z,101813.56
2019-01-06T16:10:01.620Z,101823.41
2019-01-06T16:12:47.585Z,101825.89
2019-01-06T16:15:26.578Z,101824.24
2019-01-06T16:18:08.681Z,101824.11
2019-01-06T16:20:47.535Z,101824.99
2019-01-06T16:23:24.622Z,101823.36
2019-01-06T16:25:57.747Z,101834.32
2019-01-06T16:28:43.201Z,101832.25
2019-01-06T16:31:19.511Z,101829.18
2019-01-06T16:34:05.484Z,101835.11
2019-01-06T16:36:50.531Z,101837.70
2019-01-06T16:39:23.515Z,101841.00
2019-01-06T16:41:53.577Z,101841.52
2019-01-06T16:44:41.909Z,101837.61
2019-01-06T16:47:17.748Z,101832.91
2019-01-06T16:49:56.501Z,101831.16
2019-01-06T16:52:43.072Z,101833.70
2019-01-06T16:55:13.272Z,101834.92
2019-01-06T16:57:46.493Z,101841.33
2019-01-06T17:00:25.110Z,101837.98
2019-01-06T17:03:10.987Z,101832.42
2019-01-06T17:05:43.937Z,101837.55
2019-01-06T17:08:14.157Z,101836.66
2019-01-06T17:11:00.810Z,101835.86
2019-01-06T17:13:33.337Z,101836.30
2019-01-06T17:16:12.724Z,101840.89
2019-01-06T17:19:01.174Z,101838.45
2019-01-06T17:21:47.918Z,101838.08
2019-01-06T17:24:36.443Z,101846.08
2019-01-06T17:27:18.914Z,101834.13
2019-01-06T17:29:55.068Z,101837.55
2019-01-06T17:32:41.503Z,101836.72
2019-01-06T17:35:17.768Z,101833.37
2019-01-06T17:37:50.347Z,101832.53
2019-01-06T17:40:32.269Z,101827.02
2019-01-06T17:43:08.064Z,101833.00
2019-01-06T17:45:38.367Z,101837.70
2019-01-06T17:48:25.061Z,101837.70
2019-01-06T17:50:57.867Z,101832.47
2019-01-06T17:53:44.512Z,101832.91
2019-01-06T17:56:30.803Z,101839.73
2019-01-06T17:59:16.630Z,101836.82
2019-01-06T18:01:52.805Z,101841.05
2019-01-06T18:04:41.388Z,101844.06
2019-01-06T18:07:27.819Z,101846.18
2019-01-06T18:09:58.247Z,101846.09
2019-01-06T18:12:28.662Z,101846.98
2019-01-06T18:15:07.429Z,101851.27
2019-01-06T18:17:45.268Z,101853.85
2019-01-06T18:20:31.722Z,101852.59
2019-01-06T18:23:07.889Z,101847.93
2019-01-06T18:25:49.818Z,101847.93
2019-01-06T18:28:27.265Z,101849.53
2019-01-06T18:31:15.429Z,101851.31
2019-01-06T18:34:06.158Z,101848.35
2019-01-06T18:36:57.063Z,101852.59
2019-01-06T18:39:42.082Z,101852.20
2019-01-06T18:42:29.960Z,101849.25
2019-01-06T18:45:09.426Z,101851.00
2019-01-06T18:47:56.204Z,101848.41
2019-01-06T18:50:32.699Z,101853.54
2019-01-06T18:53:02.788Z,101847.18
2019-01-06T18:55:48.780Z,101848.88
2019-01-06T18:58:18.930Z,101849.27
2019-01-06T19:00:58.127Z,101853.08
2019-01-06T19:03:43.318Z,101845.53
2019-01-06T19:06:13.379Z,101849.39
2019-01-06T19:08:52.311Z,101851.47
2019-01-06T19:11:25.067Z,101851.42
2019-01-06T19:13:55.188Z,101850.20
2019-01-06T19:16:41.818Z,101851.52
2019-01-06T19:19:11.885Z,101850.63
2019-01-06T19:21:56.878Z,101851.42
2019-01-06T19:24:43.248Z,101859.94
2019-01-06T19:27:16.385Z,101859.95
2019-01-06T19:29:52.236Z,101865.94
2019-01-06T19:32:38.165Z,101865.50
2019-01-06T19:35:24.696Z,101869.75
2019-01-06T19:38:03.392Z,101859.94
2019-01-06T19:40:33.465Z,101866.30
2019-01-06T19:43:19.920Z,101864.66
2019-01-06T19:46:05.926Z,101860.85
2019-01-06T19:48:36.079Z,101867.20
2019-01-06T19:51:09.157Z,101866.31
2019-01-06T19:53:41.953Z,101864.61
2019-01-06T19:56:14.836Z,101857.78
2019-01-06T19:58:56.803Z,101859.52
2019-01-06T20:01:45.183Z,101854.86
2019-01-06T20:04:31.359Z,101856.94
2019-01-06T20:07:06.876Z,101857.77
2019-01-06T20:09:48.900Z,101857.35
2019-01-06T20:12:28.118Z,101859.05
2019-01-06T20:15:14.391Z,101862.88
2019-01-06T20:18:00.266Z,101863.71
2019-01-06T20:20:35.800Z,101864.52
2019-01-06T20:23:23.685Z,101867.95
2019-01-06T20:26:12.388Z,101870.92
2019-01-06T20:28:57.720Z,101863.23
2019-01-06T20:31:33.650Z,101867.05
2019-01-06T20:34:21.779Z,101865.40
2019-01-06T20:37:08.695Z,101868.73
2019-01-06T20:39:54.636Z,101873.82
2019-01-06T20:42:30.736Z,101870.81
2019-01-06T20:45:16.876Z,101874.25
2019-01-06T20:48:05.186Z,101877.17
2019-01-06T20:50:35.319Z,101868.23
2019-01-06T20:53:05.444Z,101877.13
2019-01-06T20:55:51.094Z,101871.52
2019-01-06T20:58:39.264Z,101868.97
2019-01-06T21:01:09.421Z,101874.47
2019-01-06T21:03:48.750Z,101876.12
2019-01-06T21:06:33.996Z,101870.23
2019-01-06T21:09:06.537Z,101879.12
2019-01-06T21:11:39.534Z,101876.21
2019-01-06T21:14:25.701Z,101882.14
2019-01-06T21:17:07.954Z,101877.85
2019-01-06T21:19:55.856Z,101877.39
2019-01-06T21:22:40.857Z,101885.06
2019-01-06T21:25:27.190Z,101886.77
2019-01-06T21:28:09.158Z,101883.38
2019-01-06T21:30:45.905Z,101881.73
2019-01-06T21:33:18.767Z,101882.47
2019-01-06T21:36:04.885Z,101884.16
2019-01-06T21:38:44.015Z,101885.48
2019-01-06T21:41:17.307Z,101880.34
2019-01-06T21:43:51.277Z,101885.02
2019-01-06T21:46:21.340Z,101876.07
2019-01-06T21:49:07.594Z,101882.41
2019-01-06T21:51:43.624Z,101883.27
2019-01-06T21:54:29.565Z,101879.83
2019-01-06T21:57:15.827Z,101883.27
2019-01-06T21:59:45.962Z,101880.28
2019-01-06T22:02:25.240Z,101876.48
2019-01-06T22:04:58.039Z,101870.08
2019-01-06T22:07:28.113Z,101872.89
2019-01-06T22:10:16.244Z,101874.26
2019-01-06T22:12:46.503Z,101879.83
2019-01-06T22:15:19.650Z,101876.34
2019-01-06T22:18:01.401Z,101878.12
2019-01-06T22:20:31.454Z,101880.28
2019-01-06T22:23:17.613Z,101875.59
2019-01-06T22:25:53.114Z,101870.97
2019-01-06T22:28:23.196Z,101871.41
2019-01-06T22:31:09.564Z,101878.66
2019-01-06T22:33:39.696Z,101876.07
2019-01-06T22:36:25.480Z,101875.69
2019-01-06T22:39:07.725Z,101877.75
2019-01-06T22:41:40.733Z,101873.47
2019-01-06T22:44:27.072Z,101876.06
2019-01-06T22:47:13.467Z,101872.52
2019-01-06T22:49:49.755Z,101878.81
2019-01-06T22:52:36.799Z,101872.78
2019-01-06T22:55:05.838Z,101879.93
2019-01-06T22:57:35.897Z,101876.58
2019-01-06T23:00:17.539Z,101883.80
2019-01-06T23:03:03.711Z,101878.70
2019-01-06T23:05:48.403Z,101881.62
2019-01-06T23:08:18.457Z,101883.41
2019-01-06T23:10:48.976Z,101883.33
2019-01-06T23:13:34.376Z,101882.84
2019-01-06T23:16:04.452Z,101881.13
2019-01-06T23:18:46.425Z,101882.03
2019-01-06T23:21:24.952Z,101884.58
2019-01-06T23:23:55.010Z,101879.77
2019-01-06T23:26:41.176Z,101884.41
2019-01-06T23:29:20.221Z,101880.67
2019-01-06T23:31:59.313Z,101879.34
2019-01-06T23:34:41.541Z,101883.95
2019-01-06T23:37:23.652Z,101883.05
2019-01-06T23:39:56.376Z,101874.91
2019-01-06T23:42:38.412Z,101878.39
2019-01-06T23:45:24.957Z,101878.39
2019-01-06T23:47:55.067Z,101872.03
2019-01-06T23:50:33.921Z,101871.09
2019-01-06T23:53:06.444Z,101871.52
2019-01-06T23:55:36.512Z,101876.65
2019-01-06T23:58:06.576Z,101877.03
